Time;durP1;ratioP1;P1;durP2;ratioP2;P2;SDS_P1;SDS_P2;PMS_P1;PMS_P2;Temp;Humidity;BMP_temperature;BMP_pressure;BME280_temperature;BME280_humidity;BME280_pressure;Samples;Min_cycle;Max_cycle;Signal;HPM_P1;HPM_P2
2022/07/26 00:04:10;;;;;;;12.68;6.45;;;;;;;18.67;74.99;99738.94;10332616;28;20529;-71
2022/07/26 00:09:11;;;;;;;11.80;6.45;;;;;;;18.42;75.62;99714.97;10333041;28;20066;-71
2022/07/26 00:14:13;;;;;;;9.05;6.53;;;;;;;18.52;75.94;99725.13;10333027;28;20406;-71
2022/07/26 00:19:14;;;;;;;17.80;7.38;;;;;;;18.52;76.34;99723.28;10332041;28;20096;-71
2022/07/26 00:24:14;;;;;;;13.18;6.63;;;;;;;18.49;76.31;99731.81;10332033;28;20498;-71
2022/07/26 00:29:15;;;;;;;22.42;6.60;;;;;;;18.40;76.58;99723.28;10332471;28;20042;-71
2022/07/26 00:34:16;;;;;;;8.40;6.07;;;;;;;17.68;76.21;99612.44;10331792;28;20042;-71
2022/07/26 00:39:17;;;;;;;25.15;7.10;;;;;;;18.33;76.71;99735.19;10331523;28;20053;-71
2022/07/26 00:44:18;;;;;;;13.35;7.07;;;;;;;17.79;76.59;99650.09;10331712;28;20034;-71
2022/07/26 00:49:18;;;;;;;12.02;7.10;;;;;;;17.57;76.53;99622.94;10331492;28;20038;-71
2022/07/26 00:54:19;;;;;;;16.13;7.50;;;;;;;17.94;76.58;99689.13;10331162;28;20125;-71
2022/07/26 00:59:21;;;;;;;30.55;6.60;;;;;;;18.13;76.83;99743.63;10332166;28;20043;-71
2022/07/26 01:04:22;;;;;;;20.65;7.10;;;;;;;17.76;76.94;99701.56;10332069;28;20644;-71
2022/07/26 01:09:23;;;;;;;22.02;7.05;;;;;;;17.82;77.85;99750.91;10331657;28;20192;-71
2022/07/26 01:14:25;;;;;;;65.30;9.73;;;;;;;17.75;77.82;99742.91;10331026;28;20046;-71
2022/07/26 01:19:26;;;;;;;23.08;6.15;;;;;;;17.66;77.15;99713.94;10330913;28;20061;-71
2022/07/26 01:24:26;;;;;;;37.38;7.80;;;;;;;17.99;76.79;99759.13;10330656;28;20038;-70
2022/07/26 01:29:27;;;;;;;59.75;8.60;;;;;;;17.75;76.87;99724.13;10330596;28;20046;-71
2022/07/26 01:34:28;;;;;;;74.15;8.65;;;;;;;17.94;77.15;99764.38;10330605;28;20038;-71
2022/07/26 01:39:29;;;;;;;40.80;9.15;;;;;;;17.68;77.54;99744.91;10330793;28;20042;-71
2022/07/26 01:44:30;;;;;;;29.45;7.97;;;;;;;17.54;77.78;99735.38;10330873;28;20034;-71
2022/07/26 01:49:31;;;;;;;10.65;6.75;;;;;;;17.67;78.46;99777.34;10330730;28;20123;-71
2022/07/26 01:54:32;;;;;;;22.33;7.00;;;;;;;17.49;78.76;99748.66;10332732;28;20045;-71
2022/07/26 01:59:33;;;;;;;11.27;6.10;;;;;;;17.66;78.74;99779.22;10338266;28;20512;-71
2022/07/26 02:09:53;;;;;;;36.08;7.78;;;;;;;17.73;80.05;99774.56;10337667;28;20064;-71
2022/07/26 02:14:54;;;;;;;23.90;6.63;;;;;;;17.84;80.70;99774.88;10337352;28;20059;-71
2022/07/26 02:19:55;;;;;;;53.50;8.07;;;;;;;18.00;80.33;99787.63;10336756;28;20546;-71
2022/07/26 02:24:56;;;;;;;11.93;6.65;;;;;;;18.11;80.67;99802.16;10336364;28;20034;-71
2022/07/26 02:29:57;;;;;;;37.13;7.40;;;;;;;17.80;80.52;99696.59;10337212;28;20042;-71
2022/07/26 02:34:57;;;;;;;25.45;7.47;;;;;;;18.57;80.72;99793.31;10336609;28;20042;-71
2022/07/26 02:39:58;;;;;;;19.02;7.40;;;;;;;18.86;80.79;99798.84;10336269;28;20042;-71
2022/07/26 02:44:59;;;;;;;25.25;6.90;;;;;;;18.59;80.44;99717.78;10334716;28;20039;-71
2022/07/26 02:50:00;;;;;;;45.38;8.23;;;;;;;19.48;79.95;99787.47;10366292;28;20104;-71
2022/07/26 02:55:01;;;;;;;28.92;8.07;;;;;;;19.65;79.69;99731.75;10376310;28;20046;-71
2022/07/26 03:00:03;;;;;;;19.35;6.13;;;;;;;20.48;78.56;99767.09;10376185;28;20041;-71
2022/07/26 03:05:05;;;;;;;11.63;5.53;;;;;;;21.43;76.11;99794.88;10376044;28;20093;-71
2022/07/26 03:10:07;;;;;;;12.45;5.50;;;;;;;22.22;73.44;99772.66;10376063;28;20065;-71
2022/07/26 03:15:08;;;;;;;13.40;5.68;;;;;;;22.95;70.35;99726.84;10374724;28;20045;-71
2022/07/26 03:20:10;;;;;;;7.93;5.78;;;;;;;24.39;66.49;99806.59;10374758;28;20069;-71
2022/07/26 03:25:11;;;;;;;11.52;5.38;;;;;;;25.22;62.82;99740.94;10374736;28;20065;-71
2022/07/26 03:30:12;;;;;;;15.98;6.03;;;;;;;25.99;59.04;99674.31;10374410;28;20504;-71
2022/07/26 03:35:13;;;;;;;24.63;16.33;;;;;;;27.54;56.10;99798.47;10375936;28;20133;-72
2022/07/26 03:40:15;;;;;;;23.20;16.13;;;;;;;28.20;54.00;99800.22;10374642;28;20132;-72
2022/07/26 03:45:16;;;;;;;12.90;5.27;;;;;;;28.51;52.79;99802.50;10374527;28;20587;-72
2022/07/26 03:50:17;;;;;;;8.10;5.32;;;;;;;29.32;50.98;99805.59;10374088;28;20088;-72
2022/07/26 04:00:37;;;;;;;11.25;6.18;;;;;;;29.95;48.50;99781.22;10359582;28;20041;-72
2022/07/26 04:05:38;;;;;;;10.20;4.53;;;;;;;30.18;48.19;99790.22;10373621;28;20529;-70
2022/07/26 04:10:43;;;;;;;7.38;4.35;;;;;;;30.19;47.47;99753.50;10364696;28;20129;-70
2022/07/26 04:15:44;;;;;;;6.22;3.72;;;;;;;30.78;46.30;99776.09;10359338;28;20097;-69
2022/07/26 04:20:45;;;;;;;7.38;4.00;;;;;;;31.44;45.87;99797.28;10339917;28;20049;-69
2022/07/26 04:25:45;;;;;;;9.48;3.67;;;;;;;31.66;45.14;99782.63;10348819;28;20044;-69
2022/07/26 04:30:47;;;;;;;4.65;3.45;;;;;;;31.52;44.74;99783.56;10368219;28;20046;-70
2022/07/26 04:35:47;;;;;;;17.55;4.80;;;;;;;31.30;44.78;99778.19;10346875;28;20037;-70
2022/07/26 04:40:49;;;;;;;18.95;14.85;;;;;;;30.89;45.91;99795.81;10369294;28;20103;-71
2022/07/26 04:45:51;;;;;;;7.57;5.00;;;;;;;29.62;48.56;99747.78;10361558;28;20054;-72
2022/07/26 04:50:52;;;;;;;6.60;3.83;;;;;;;29.69;48.54;99778.28;10371614;28;20304;-73
2022/07/26 04:55:53;;;;;;;7.22;3.65;;;;;;;29.60;48.16;99725.34;10371713;28;20492;-73
2022/07/26 05:00:54;;;;;;;8.02;3.88;;;;;;;29.98;47.79;99778.66;10371626;28;20100;-73
2022/07/26 05:05:54;;;;;;;7.00;4.28;;;;;;;29.76;47.72;99741.13;10372416;28;20049;-72
2022/07/26 05:10:55;;;;;;;6.00;4.28;;;;;;;29.79;47.54;99776.09;10372594;28;20050;-73
2022/07/26 05:15:58;;;;;;;9.48;3.55;;;;;;;29.46;48.21;99771.91;10371275;28;20049;-72
2022/07/26 05:20:59;;;;;;;5.95;4.00;;;;;;;29.16;48.50;99756.97;10371468;28;20046;-72
2022/07/26 05:25:59;;;;;;;7.10;3.88;;;;;;;28.98;49.02;99750.47;10371256;28;20042;-72
2022/07/26 05:31:00;;;;;;;11.43;4.40;;;;;;;28.80;49.22;99731.13;10377305;28;20037;-71
2022/07/26 05:36:01;;;;;;;12.32;4.40;;;;;;;28.10;49.15;99611.19;10379359;28;20041;-71
2022/07/26 05:41:02;;;;;;;9.85;4.38;;;;;;;29.13;48.64;99759.19;10378495;28;20045;-73
2022/07/26 05:46:03;;;;;;;23.83;4.78;;;;;;;29.04;48.78;99733.69;10379557;28;20405;-72
2022/07/26 05:51:04;;;;;;;22.55;4.40;;;;;;;29.27;48.66;99747.44;10379601;28;20042;-71
2022/07/26 05:56:05;;;;;;;8.68;3.90;;;;;;;29.23;47.54;99730.84;10378665;28;20046;-72
2022/07/26 06:01:06;;;;;;;4.68;3.88;;;;;;;29.29;47.12;99706.91;10378438;28;20034;-72
2022/07/26 06:06:07;;;;;;;7.47;4.35;;;;;;;29.34;47.16;99714.97;10377174;28;20133;-73
2022/07/26 06:11:07;;;;;;;9.27;4.03;;;;;;;29.28;46.75;99697.06;10377385;28;20050;-73
2022/07/26 06:16:08;;;;;;;6.15;3.90;;;;;;;29.03;47.52;99650.03;10378147;28;20103;-72
2022/07/26 06:21:09;;;;;;;7.03;3.90;;;;;;;29.57;47.19;99707.63;10376991;28;20041;-72
2022/07/26 06:26:11;;;;;;;25.33;4.18;;;;;;;29.66;46.66;99683.88;10378237;28;20257;-72
2022/07/26 06:31:11;;;;;;;5.95;4.03;;;;;;;29.92;46.58;99686.81;10377170;28;20563;-72
2022/07/26 06:36:12;;;;;;;32.03;5.22;;;;;;;29.84;47.58;99660.19;10377201;28;20033;-71
2022/07/26 06:41:13;;;;;;;10.52;4.38;;;;;;;29.74;47.32;99649.50;10376520;28;20042;-72
2022/07/26 06:46:15;;;;;;;6.78;3.83;;;;;;;30.06;46.32;99678.50;10375598;28;20049;-72
2022/07/26 06:51:15;;;;;;;7.88;3.97;;;;;;;29.48;45.10;99559.78;10376749;28;20048;-72
2022/07/26 06:56:17;;;;;;;8.27;3.53;;;;;;;29.95;44.61;99614.97;10376379;28;20052;-72
2022/07/26 07:01:18;;;;;;;5.88;3.42;;;;;;;30.62;44.48;99667.97;10375608;28;20037;-73
2022/07/26 07:06:19;;;;;;;22.23;4.47;;;;;;;30.78;43.93;99669.16;10376007;28;20049;-72
2022/07/26 07:11:20;;;;;;;5.85;3.47;;;;;;;30.67;44.16;99663.16;10376056;28;20545;-72
2022/07/26 07:16:20;;;;;;;5.93;3.45;;;;;;;30.78;42.76;99652.69;10375152;28;20548;-74
2022/07/26 07:21:21;;;;;;;6.00;3.33;;;;;;;30.93;42.08;99654.19;10375584;28;20050;-72
2022/07/26 07:26:22;;;;;;;7.90;3.42;;;;;;;30.83;41.42;99660.78;10374651;28;20033;-72
2022/07/26 07:31:24;;;;;;;10.90;3.85;;;;;;;30.56;42.17;99567.81;10375579;28;20074;-72
2022/07/26 07:36:25;;;;;;;6.47;3.08;;;;;;;31.20;41.50;99617.41;10373103;28;20038;-74
2022/07/26 07:41:25;;;;;;;6.80;3.35;;;;;;;31.46;41.38;99627.59;10374293;28;20080;-72
2022/07/26 07:46:26;;;;;;;4.80;3.30;;;;;;;31.13;39.90;99560.28;10374448;28;20387;-75
2022/07/26 07:51:27;;;;;;;48.78;5.03;;;;;;;31.79;40.22;99631.38;10373549;28;20520;-73
2022/07/26 07:56:28;;;;;;;7.47;3.00;;;;;;;31.90;39.47;99620.91;10373568;28;20038;-73
2022/07/26 08:01:29;;;;;;;7.72;3.13;;;;;;;31.75;39.42;99563.75;10374130;28;20042;-72
2022/07/26 08:06:30;;;;;;;6.38;3.30;;;;;;;31.75;38.48;99547.25;10373744;28;20486;-72
2022/07/26 08:11:30;;;;;;;7.88;3.05;;;;;;;32.35;38.16;99605.84;10372830;28;20062;-72
2022/07/26 08:16:31;;;;;;;5.05;2.92;;;;;;;32.21;37.56;99593.13;10374414;28;20054;-73
2022/07/26 08:21:32;;;;;;;9.88;3.30;;;;;;;32.09;36.80;99535.34;10373558;28;20034;-72
2022/07/26 08:26:33;;;;;;;7.72;3.45;;;;;;;32.76;36.67;99574.06;10372957;28;20044;-73
2022/07/26 08:31:34;;;;;;;7.38;3.20;;;;;;;32.64;36.05;99561.88;10372409;28;20124;-72
2022/07/26 08:36:34;;;;;;;5.15;3.00;;;;;;;32.37;36.03;99585.16;10372615;28;20088;-73
2022/07/26 08:41:35;;;;;;;6.28;3.05;;;;;;;32.23;36.15;99521.38;10365616;28;20052;-73
2022/07/26 08:46:38;;;;;;;6.05;3.33;;;;;;;32.57;36.06;99589.06;10372826;28;20481;-72
2022/07/26 08:51:42;;;;;;;6.47;3.40;;;;;;;32.37;35.59;99582.41;10388181;28;20041;-73
2022/07/26 08:56:57;;;;;;;7.95;3.35;;;;;;;32.56;35.13;99575.69;10386680;28;20050;-73
2022/07/26 09:02:00;;;;;;;6.93;3.67;;;;;;;32.82;36.08;99578.22;10382170;28;20076;-72
2022/07/26 09:07:05;;;;;;;;;;;;;;;33.21;35.94;99567.88;10397234;28;20096;-73
2022/07/26 09:12:14;;;;;;;5.50;3.75;;;;;;;32.45;34.46;99487.28;10396602;28;20019;-72
2022/07/26 09:17:17;;;;;;;9.25;4.20;;;;;;;32.92;34.69;99570.38;10392743;28;20042;-73
2022/07/26 09:22:18;;;;;;;8.73;4.30;;;;;;;32.73;34.76;99573.59;10395154;28;20068;-73
2022/07/26 09:27:18;;;;;;;6.72;5.25;;;;;;;32.80;34.71;99556.56;10394645;28;20054;-72
2022/07/26 09:32:25;;;;;;;23.23;5.90;;;;;;;32.96;34.95;99535.53;10394711;28;20444;-73
2022/07/26 09:37:36;;;;;;;9.10;4.55;;;;;;;33.38;33.12;99554.75;10395361;28;20041;-74
2022/07/26 09:42:52;;;;;;;7.97;4.00;;;;;;;33.55;33.15;99553.78;10391894;28;20030;-73
2022/07/26 09:47:53;;;;;;;7.13;4.28;;;;;;;33.59;33.00;99548.41;10393938;28;20268;-71
2022/07/26 09:53:02;;;;;;;6.63;4.30;;;;;;;33.47;31.92;99548.34;10395981;28;20037;-71
2022/07/26 09:58:05;;;;;;;9.00;4.28;;;;;;;32.64;32.90;99475.81;10392305;28;20038;-72
2022/07/26 10:03:06;;;;;;;;;;;;;;;32.82;33.94;99546.03;10389842;28;20041;-72
2022/07/26 10:08:07;;;;;;;8.30;3.63;;;;;;;32.22;34.71;99552.75;10392278;28;19921;-73
2022/07/26 10:13:09;;;;;;;12.60;4.03;;;;;;;32.20;34.38;99555.00;10392978;28;20045;-72
2022/07/26 10:18:46;;;;;;;8.73;3.93;;;;;;;32.38;34.10;99531.78;10393491;28;20038;-72
2022/07/26 10:23:50;;;;;;;5.72;3.90;;;;;;;31.50;34.34;99420.75;10387974;28;20045;-72
2022/07/26 10:28:51;;;;;;;7.22;3.85;;;;;;;31.45;33.95;99425.63;10347671;28;20046;-73
2022/07/26 10:33:54;;;;;;;11.00;4.07;;;;;;;32.04;34.12;99467.66;10336799;28;20039;-73
2022/07/26 10:39:13;;;;;;;8.02;3.78;;;;;;;32.89;33.60;99523.50;10335958;28;20070;-72
2022/07/26 10:44:15;;;;;;;5.63;2.90;;;;;;;33.01;33.69;99518.06;10336427;28;20054;-73
2022/07/26 10:49:17;;;;;;;3.60;3.07;;;;;;;33.36;33.13;99523.22;10336179;28;20053;-73
2022/07/26 10:54:18;;;;;;;5.32;2.90;;;;;;;33.72;32.22;99516.19;10336241;28;20112;-71
2022/07/26 10:59:33;;;;;;;7.70;3.05;;;;;;;34.22;30.96;99498.50;10336687;28;20464;-72
2022/07/26 11:04:34;;;;;;;10.82;3.05;;;;;;;34.36;31.03;99474.13;10336098;28;20480;-72
2022/07/26 11:09:34;;;;;;;4.25;3.20;;;;;;;34.29;30.70;99457.38;10335734;28;20104;-72
2022/07/26 11:14:35;;;;;;;8.38;3.63;;;;;;;34.28;31.25;99480.56;10335894;28;20038;-72
2022/07/26 11:19:39;;;;;;;5.03;2.95;;;;;;;34.30;30.27;99489.31;10334339;28;20050;-76
2022/07/26 11:24:40;;;;;;;11.07;3.13;;;;;;;34.15;31.48;99485.31;10334393;28;20038;-73
2022/07/26 11:29:41;;;;;;;5.75;3.20;;;;;;;33.93;32.08;99472.00;10333067;28;20058;-73
2022/07/26 11:34:43;;;;;;;4.72;2.78;;;;;;;33.66;31.58;99471.56;10335006;28;20038;-72
2022/07/26 11:39:45;;;;;;;;;;;;;;;33.85;31.66;99463.50;10334576;28;20042;-72
2022/07/26 11:44:47;;;;;;;;;;;;;;;34.17;31.03;99460.97;10344578;28;19924;-72
2022/07/26 11:49:49;;;;;;;8.23;3.05;;;;;;;34.04;31.68;99462.13;10357037;28;19960;-72
2022/07/26 11:54:51;;;;;;;9.90;3.22;;;;;;;33.78;31.14;99448.72;10364230;28;20037;-74
2022/07/26 11:59:52;;;;;;;9.32;2.83;;;;;;;34.04;30.69;99465.72;10358818;28;20088;-73
2022/07/26 12:05:17;;;;;;;5.63;2.90;;;;;;;34.38;30.93;99469.09;10357390;28;20482;-73
2022/07/26 12:10:18;;;;;;;8.88;3.30;;;;;;;34.15;31.19;99445.94;10333296;28;20054;-74
2022/07/26 12:15:18;;;;;;;7.95;3.05;;;;;;;33.88;30.81;99441.94;10331714;28;20057;-73
2022/07/26 12:20:22;;;;;;;22.58;3.67;;;;;;;33.79;31.83;99458.56;10372999;28;20141;-73
2022/07/26 12:25:25;;;;;;;6.93;3.20;;;;;;;33.28;31.65;99394.75;10367150;28;20413;-73
2022/07/26 12:30:25;;;;;;;5.68;3.08;;;;;;;33.19;32.39;99390.16;10357040;28;20050;-74
2022/07/26 12:35:34;;;;;;;6.68;2.85;;;;;;;33.69;31.60;99437.00;10362540;28;20050;-72
2022/07/26 12:40:43;;;;;;;12.18;2.60;;;;;;;33.66;32.28;99426.69;10334639;28;20465;-71
2022/07/26 12:45:44;;;;;;;5.57;3.00;;;;;;;33.38;31.94;99381.31;10332241;28;20046;-72
2022/07/26 12:50:47;;;;;;;7.18;3.72;;;;;;;33.90;30.90;99442.41;10331544;28;20058;-71
2022/07/26 12:55:48;;;;;;;7.82;3.38;;;;;;;33.76;30.78;99420.69;10366024;28;20058;-73
2022/07/26 13:00:50;;;;;;;28.38;5.30;;;;;;;33.70;30.86;99453.19;10336140;28;20137;-72
2022/07/26 13:05:51;;;;;;;;;;;;;;;33.79;31.19;99444.81;10331976;28;20046;-72
2022/07/26 13:10:52;;;;;;;13.40;3.83;;;;;;;33.25;32.05;99425.72;10335579;28;19928;-70
2022/07/26 13:15:52;;;;;;;16.88;4.28;;;;;;;33.22;32.51;99426.41;10348521;28;20501;-72
2022/07/26 13:20:53;;;;;;;7.97;2.80;;;;;;;33.03;33.46;99404.94;10368353;28;20060;-71
2022/07/26 13:25:54;;;;;;;5.15;2.97;;;;;;;33.16;33.11;99423.06;10342478;28;20046;-72
2022/07/26 13:30:55;;;;;;;56.03;23.65;;;;;;;33.26;32.59;99399.78;10331350;28;20034;-72
2022/07/26 13:35:56;;;;;;;16.58;5.53;;;;;;;33.36;32.05;99411.16;10329541;28;20043;-73
2022/07/26 13:40:57;;;;;;;14.82;3.80;;;;;;;33.08;32.66;99399.97;10328938;28;20403;-73
2022/07/26 13:45:58;;;;;;;7.30;3.30;;;;;;;32.56;31.88;99337.28;10351423;28;20117;-73
2022/07/26 13:50:58;;;;;;;4.40;2.70;;;;;;;32.79;32.50;99389.13;10364952;28;20046;-73
2022/07/26 13:55:59;;;;;;;7.97;3.00;;;;;;;32.30;33.05;99348.50;10378226;28;20046;-72
2022/07/26 14:01:01;;;;;;;5.47;3.00;;;;;;;31.94;33.19;99349.91;10389568;28;20131;-74
2022/07/26 14:06:02;;;;;;;8.35;2.80;;;;;;;31.96;34.70;99383.34;10395954;28;20128;-74
2022/07/26 14:11:04;;;;;;;16.13;3.50;;;;;;;31.78;34.96;99388.13;10392991;28;20144;-73
2022/07/26 14:16:05;;;;;;;11.77;4.47;;;;;;;31.41;34.65;99389.81;10394627;28;20038;-74
2022/07/26 14:21:06;;;;;;;5.45;2.90;;;;;;;31.08;34.90;99395.06;10388532;28;20029;-75
2022/07/26 14:26:06;;;;;;;4.88;2.53;;;;;;;30.47;34.54;99365.00;10395162;28;20050;-80
2022/07/26 14:31:07;;;;;;;5.57;2.42;;;;;;;30.32;34.75;99393.72;10392731;28;20044;-75
2022/07/26 14:36:08;;;;;;;10.23;2.72;;;;;;;29.98;36.68;99381.59;10386641;28;20080;-73
2022/07/26 14:41:10;;;;;;;5.82;2.28;;;;;;;29.63;38.55;99435.47;10413320;28;20034;-73
2022/07/26 14:46:11;;;;;;;23.48;3.05;;;;;;;28.88;42.39;99454.31;10417815;28;20080;-71
2022/07/26 14:51:12;;;;;;;12.05;2.88;;;;;;;27.39;46.91;99441.41;10389228;28;20128;-71
2022/07/26 14:56:13;;;;;;;13.55;2.97;;;;;;;26.90;50.18;99540.91;10390736;28;20044;-72
2022/07/26 15:01:15;;;;;;;22.30;4.22;;;;;;;26.17;54.38;99537.50;10395931;28;20037;-71
2022/07/26 15:06:16;;;;;;;19.17;5.20;;;;;;;24.85;61.25;99520.47;10395135;28;20045;-72
2022/07/26 15:11:17;;;;;;;13.75;4.63;;;;;;;23.63;67.90;99528.00;10395313;28;20050;-68
2022/07/26 15:16:19;;;;;;;13.73;5.72;;;;;;;23.33;71.54;99588.47;10393734;28;20060;-72
2022/07/26 15:21:20;;;;;;;15.27;5.45;;;;;;;23.18;73.52;99576.56;10396264;28;21253;-69
2022/07/26 15:26:20;;;;;;;14.20;5.20;;;;;;;22.96;73.19;99524.53;10388747;28;20264;-69
2022/07/26 15:31:23;;;;;;;13.35;6.40;;;;;;;23.33;73.92;99550.53;10397583;28;20052;-70
2022/07/26 15:36:24;;;;;;;22.85;6.40;;;;;;;23.30;74.61;99557.31;10397330;28;20095;-68
2022/07/26 15:41:25;;;;;;;14.68;4.80;;;;;;;23.20;75.07;99579.00;10398003;28;20555;-68
2022/07/26 15:46:26;;;;;;;11.27;4.75;;;;;;;22.83;77.37;99552.09;10389914;28;20417;-68
2022/07/26 15:51:27;;;;;;;11.05;4.80;;;;;;;22.97;78.46;99593.84;10377872;28;20038;-68
2022/07/26 15:56:27;;;;;;;11.38;5.25;;;;;;;22.67;79.15;99535.00;10348494;28;20046;-68
2022/07/26 16:01:28;;;;;;;9.98;4.93;;;;;;;22.96;79.67;99581.41;10333471;28;20092;-70
2022/07/26 16:06:30;;;;;;;15.25;5.93;;;;;;;22.98;81.29;99600.91;10333187;28;20050;-71
2022/07/26 16:11:32;;;;;;;10.90;5.95;;;;;;;22.92;83.18;99583.81;10333765;28;20405;-69
2022/07/26 16:16:32;;;;;;;8.65;5.97;;;;;;;22.85;84.37;99549.94;10331237;28;20068;-69
2022/07/26 16:21:33;;;;;;;11.05;7.68;;;;;;;22.56;83.96;99461.09;10332342;28;20046;-68
2022/07/26 16:26:35;;;;;;;18.95;7.82;;;;;;;22.47;83.84;99432.94;10333054;28;20502;-67
2022/07/26 16:31:36;;;;;;;19.30;9.38;;;;;;;23.15;82.93;99516.66;10331808;28;20506;-68
2022/07/26 16:36:37;;;;;;;15.52;9.45;;;;;;;23.16;82.83;99523.72;10318566;28;20058;-66
2022/07/26 16:41:38;;;;;;;10.18;6.53;;;;;;;23.11;82.13;99505.56;10292811;28;20485;-67
2022/07/26 16:46:39;;;;;;;12.57;6.75;;;;;;;23.25;81.84;99519.38;10291543;28;20066;-64
2022/07/26 16:51:39;;;;;;;14.70;9.93;;;;;;;23.29;81.94;99536.72;10291924;28;20486;-67
2022/07/26 16:56:40;;;;;;;13.77;6.78;;;;;;;23.31;82.00;99558.13;10291619;28;20078;-67
2022/07/26 17:01:41;;;;;;;9.70;6.57;;;;;;;22.93;82.29;99525.03;10290925;28;20051;-68
2022/07/26 17:06:43;;;;;;;8.82;5.78;;;;;;;23.20;82.54;99579.00;10290067;28;20065;-67
2022/07/26 17:11:43;;;;;;;36.17;16.35;;;;;;;23.18;79.89;99564.88;10291760;28;20451;-72
2022/07/26 17:16:45;;;;;;;12.55;8.18;;;;;;;23.47;77.55;99573.31;10304502;28;20042;-70
2022/07/26 17:21:46;;;;;;;6.65;4.88;;;;;;;23.41;75.46;99558.94;10324310;28;20034;-70
2022/07/26 17:26:47;;;;;;;7.65;5.55;;;;;;;23.33;75.42;99562.19;10332283;28;20042;-74
2022/07/26 17:31:49;;;;;;;9.60;6.20;;;;;;;23.29;75.32;99574.66;10334044;28;20038;-67
2022/07/26 17:36:57;;;;;;;8.23;4.10;;;;;;;23.25;74.95;99570.88;10333263;28;20073;-69
2022/07/26 17:41:58;;;;;;;10.52;6.88;;;;;;;23.21;74.37;99572.47;10346406;28;20046;-68
2022/07/26 17:47:00;;;;;;;10.65;5.70;;;;;;;22.99;74.16;99529.41;10354494;28;20046;-68
2022/07/26 17:52:01;;;;;;;6.82;4.20;;;;;;;23.10;73.31;99541.88;10347293;28;20038;-70
2022/07/26 17:57:02;;;;;;;6.45;3.53;;;;;;;22.78;73.32;99490.63;10349188;28;20464;-68
2022/07/26 18:02:02;;;;;;;4.82;3.70;;;;;;;22.96;72.81;99524.53;10351448;28;20041;-69
2022/07/26 18:07:03;;;;;;;4.72;3.33;;;;;;;23.10;73.66;99565.44;10351753;28;20414;-69
2022/07/26 18:12:05;;;;;;;4.55;3.00;;;;;;;23.26;74.08;99591.47;10352189;28;20057;-69
2022/07/26 18:17:05;;;;;;;6.57;2.60;;;;;;;23.15;73.34;99581.69;10355984;28;20124;-69
2022/07/26 18:22:06;;;;;;;3.40;2.25;;;;;;;23.26;72.30;99571.69;10368996;28;20125;-69
2022/07/26 18:27:07;;;;;;;4.38;2.30;;;;;;;22.82;72.91;99497.13;10366929;28;20045;-67
2022/07/26 18:32:08;;;;;;;2.75;1.73;;;;;;;23.23;70.34;99568.41;10347276;28;20077;-68
2022/07/26 18:37:09;;;;;;;3.28;2.05;;;;;;;23.45;67.99;99589.00;10355043;28;20105;-68
2022/07/26 18:42:10;;;;;;;4.63;2.45;;;;;;;23.69;66.67;99603.69;10354831;28;20042;-69
2022/07/26 18:47:10;;;;;;;4.05;2.40;;;;;;;23.82;66.37;99607.75;10375039;28;20041;-68
2022/07/26 18:52:11;;;;;;;7.68;2.88;;;;;;;23.90;66.63;99638.91;10374445;28;20120;-69
2022/07/26 18:57:12;;;;;;;4.07;2.53;;;;;;;23.63;68.55;99658.97;10374151;28;20064;-68
2022/07/26 19:02:13;;;;;;;6.30;3.78;;;;;;;23.42;73.35;99717.78;10374798;28;20038;-68
2022/07/26 19:07:14;;;;;;;14.30;6.25;;;;;;;22.72;80.11;99741.59;10373816;28;20103;-73
2022/07/26 19:12:15;;;;;;;13.00;6.47;;;;;;;22.14;86.14;99748.78;10370451;28;20065;-72
2022/07/26 19:17:16;;;;;;;11.27;6.53;;;;;;;21.52;89.02;99662.81;10357409;28;20049;-68
2022/07/26 19:22:17;;;;;;;17.42;6.85;;;;;;;21.79;91.54;99717.66;10357427;28;20132;-70
2022/07/26 19:27:18;;;;;;;10.90;6.60;;;;;;;21.30;93.54;99644.75;10334787;28;20042;-69
2022/07/26 19:32:19;;;;;;;11.45;7.47;;;;;;;21.34;95.30;99651.28;10334215;28;20042;-70
2022/07/26 19:37:20;;;;;;;8.60;6.55;;;;;;;21.42;95.55;99675.16;10333830;28;20042;-70
2022/07/26 19:42:21;;;;;;;10.35;7.20;;;;;;;21.64;96.50;99699.41;10335257;28;20049;-69
2022/07/26 19:47:22;;;;;;;12.07;7.00;;;;;;;21.82;97.15;99711.72;10314866;28;20053;-69
2022/07/26 19:52:23;;;;;;;8.07;6.15;;;;;;;21.77;97.36;99706.28;10293175;28;20034;-68
2022/07/26 19:57:24;;;;;;;8.48;6.93;;;;;;;21.77;98.18;99722.50;10291798;28;20046;-68
2022/07/26 20:02:25;;;;;;;11.02;6.13;;;;;;;21.81;98.35;99731.72;10293815;28;20403;-67
2022/07/26 20:07:26;;;;;;;10.55;6.43;;;;;;;21.81;98.54;99729.03;10292488;28;20097;-68
2022/07/26 20:12:27;;;;;;;9.88;6.28;;;;;;;21.74;99.60;99716.78;10293013;28;20058;-68
2022/07/26 20:17:32;;;;;;;10.60;6.78;;;;;;;21.76;99.75;99720.88;10292278;28;20042;-68
2022/07/26 20:22:32;;;;;;;9.27;6.63;;;;;;;21.15;100.00;99629.22;10293028;28;20118;-70
2022/07/26 20:27:33;;;;;;;11.95;6.82;;;;;;;21.59;100.00;99688.53;10293527;28;20042;-68
2022/07/26 20:32:34;;;;;;;11.23;6.03;;;;;;;21.40;100.00;99682.69;10292292;28;20046;-67
2022/07/26 20:37:35;;;;;;;7.90;5.50;;;;;;;21.32;99.96;99676.91;10291679;28;20039;-67
2022/07/26 20:42:36;;;;;;;7.80;5.35;;;;;;;21.31;99.40;99684.19;10292232;28;20043;-67
2022/07/26 20:47:39;;;;;;;6.90;4.57;;;;;;;21.35;98.92;99688.00;10292849;28;20046;-67
2022/07/26 20:52:40;;;;;;;7.88;5.30;;;;;;;20.86;99.46;99619.72;10291855;28;20062;-67
2022/07/26 20:57:40;;;;;;;6.90;4.95;;;;;;;21.23;100.00;99703.56;10291250;28;20046;-67
2022/07/26 21:02:42;;;;;;;9.77;5.20;;;;;;;21.24;100.00;99712.47;10291406;28;20034;-67
2022/07/26 21:07:43;;;;;;;6.28;5.20;;;;;;;21.24;100.00;99718.72;10290195;28;20403;-67
2022/07/26 21:12:43;;;;;;;7.43;5.32;;;;;;;21.23;100.00;99717.06;10293308;28;20075;-67
2022/07/26 22:23:08;;;;;;;5.50;4.85;;;;;;;20.79;100.00;99721.66;10297234;28;20049;-67
2022/07/26 22:28:10;;;;;;;7.70;5.60;;;;;;;20.73;100.00;99708.13;10297146;28;20042;-67
2022/07/26 22:33:11;;;;;;;7.25;5.50;;;;;;;20.50;100.00;99673.22;10295839;28;20137;-67
2022/07/26 22:38:12;;;;;;;8.55;5.43;;;;;;;20.65;100.00;99696.94;10297127;28;20045;-67
2022/07/26 22:43:13;;;;;;;10.20;5.47;;;;;;;20.56;100.00;99695.75;10296505;28;20125;-67
2022/07/26 22:48:14;;;;;;;12.15;6.75;;;;;;;20.64;100.00;99706.91;10296326;28;20046;-67
2022/07/26 22:53:15;;;;;;;8.07;5.82;;;;;;;20.55;100.00;99691.38;10295593;28;20046;-67
2022/07/26 22:58:16;;;;;;;10.35;5.63;;;;;;;20.67;100.00;99716.38;10296235;28;20053;-67
2022/07/26 23:03:18;;;;;;;8.98;6.75;;;;;;;20.22;100.00;99647.22;10295033;28;20463;-67
2022/07/26 23:08:19;;;;;;;9.15;6.72;;;;;;;20.51;100.00;99697.25;10295562;28;20582;-67
2022/07/26 23:13:20;;;;;;;10.48;6.95;;;;;;;20.63;100.00;99731.44;10294706;28;20038;-67
2022/07/26 23:18:20;;;;;;;8.73;5.43;;;;;;;20.21;100.00;99670.66;10294576;28;20050;-68
2022/07/26 23:23:21;;;;;;;9.40;5.43;;;;;;;20.68;100.00;99735.03;10295162;28;20038;-67
2022/07/26 23:28:22;;;;;;;7.85;4.88;;;;;;;20.72;100.00;99733.44;10294772;28;20114;-67
2022/07/26 23:33:23;;;;;;;9.77;5.57;;;;;;;20.63;100.00;99734.13;10293966;28;20125;-67
2022/07/26 23:38:23;;;;;;;6.63;5.88;;;;;;;20.62;100.00;99719.03;10294364;28;20121;-68
2022/07/26 23:43:24;;;;;;;7.88;5.80;;;;;;;20.58;100.00;99712.47;10294201;28;20066;-67
2022/07/26 23:48:25;;;;;;;7.50;6.70;;;;;;;20.37;100.00;99657.38;10293417;28;20050;-67
2022/07/26 23:53:25;;;;;;;8.77;6.57;;;;;;;20.92;100.00;99730.22;10293850;28;20046;-67
2022/07/26 23:58:26;;;;;;;7.95;7.15;;;;;;;20.94;100.00;99736.19;10293698;28;20050;-67
